ΕΜΥ, Εθνική Μετεωρολογική Υπηρεσία - Δελτία Καιρού, Προγνώσεις

ΑΕΡΟΝΑΥΤΙΛΙΑ

GREEK AIRPORTS CODES

LGST 051400Z AUTO 07005KT 040V110 //// // ////// 18/13 Q1015 RE//=

EUROPEAN AIRPORTS CODES

LFPO 051400Z 15010KT 130V190 9999 SCT020 BKN032 06/02 Q0994NOSIG=